Time;durP1;ratioP1;P1;durP2;ratioP2;P2;SDS_P1;SDS_P2;PMS_P1;PMS_P2;Temp;Humidity;BMP_temperature;BMP_pressure;BME280_temperature;BME280_humidity;BME280_pressure;Samples;Min_cycle;Max_cycle;Signal;HPM_P1;HPM_P2
2023/12/11 00:12:25;;;;;;;47.40;43.30;;;;;;;-0.50;100.00;101470.66;4922699;29;20055;-77
2023/12/11 00:49:09;;;;;;;46.33;42.88;;;;;;;-0.35;100.00;101443.38;4659381;30;20079;-72
2023/12/11 00:51:38;;;;;;;38.88;35.88;;;;;;;-0.51;100.00;101437.69;4688448;30;20212;-77
2023/12/11 00:54:05;;;;;;;43.70;39.50;;;;;;;-0.51;100.00;101437.69;4693109;30;20057;-77
2023/12/11 00:56:32;;;;;;;46.28;42.13;;;;;;;-0.43;100.00;101434.47;4781744;30;20146;-77
2023/12/11 00:58:59;;;;;;;41.97;38.58;;;;;;;-0.49;100.00;101431.38;4783611;30;20055;-77
2023/12/11 01:01:26;;;;;;;43.67;39.97;;;;;;;-0.47;100.00;101431.28;4785512;29;20059;-77
2023/12/11 01:03:53;;;;;;;44.25;40.47;;;;;;;-0.53;100.00;101426.53;4838731;29;20050;-77
2023/12/11 01:06:22;;;;;;;43.72;40.17;;;;;;;-0.46;100.00;101423.31;4838551;29;20054;-77
2023/12/11 01:08:50;;;;;;;45.28;41.70;;;;;;;-0.42;100.00;101412.63;4836465;29;20140;-77
2023/12/11 01:11:17;;;;;;;44.45;40.50;;;;;;;-0.52;100.00;101404.69;4838553;29;20086;-77
2023/12/11 01:13:44;;;;;;;41.10;38.00;;;;;;;-0.44;100.00;101399.72;4838100;29;20667;-77
2023/12/11 01:16:13;;;;;;;43.15;39.55;;;;;;;-0.43;100.00;101393.53;4875145;29;20051;-77
2023/12/11 01:18:40;;;;;;;45.30;41.72;;;;;;;-0.57;100.00;101386.78;4874943;29;20507;-78
2023/12/11 01:21:07;;;;;;;49.00;45.30;;;;;;;-0.49;100.00;101384.41;4875595;29;20055;-77
2023/12/11 01:23:43;;;;;;;44.00;40.35;;;;;;;-0.46;100.00;101384.16;4870893;29;20060;-77
2023/12/11 01:26:10;;;;;;;45.22;41.67;;;;;;;-0.60;100.00;101383.59;4875322;29;20471;-78
2023/12/11 01:28:37;;;;;;;51.90;47.80;;;;;;;-0.56;100.00;101391.03;4892340;29;20135;-77
2023/12/11 01:31:04;;;;;;;48.42;44.47;;;;;;;-0.54;100.00;101388.34;4913030;29;20142;-77
2023/12/11 01:33:31;;;;;;;44.92;41.22;;;;;;;-0.58;100.00;101381.66;4907788;29;20048;-77
2023/12/11 01:35:58;;;;;;;51.45;47.58;;;;;;;-0.58;100.00;101379.06;4912548;29;20123;-77
2023/12/11 01:38:27;;;;;;;49.00;45.10;;;;;;;-0.47;100.00;101387.72;4912440;29;20509;-76
2023/12/11 01:40:56;;;;;;;45.28;41.47;;;;;;;-0.57;100.00;101399.00;4924117;28;20057;-77
2023/12/11 01:43:24;;;;;;;43.55;39.85;;;;;;;-0.56;100.00;101393.66;4968594;28;20138;-77
2023/12/11 01:46:03;;;;;;;41.90;38.47;;;;;;;-0.53;100.00;101395.19;4969390;28;20642;-78
2023/12/11 01:48:30;;;;;;;42.95;39.45;;;;;;;-0.59;100.00;101395.66;4963355;28;20484;-77
2023/12/11 01:50:57;;;;;;;44.42;40.92;;;;;;;-0.53;100.00;101382.97;4968858;28;20134;-77
2023/12/11 01:53:25;;;;;;;47.45;43.30;;;;;;;-0.55;100.00;101377.03;4966887;28;20081;-76
2023/12/11 01:55:52;;;;;;;46.45;42.85;;;;;;;-0.56;100.00;101387.59;4968764;28;20130;-77
2023/12/11 01:58:24;;;;;;;47.67;43.88;;;;;;;-0.52;100.00;101383.81;4969329;28;20061;-77
2023/12/11 02:00:51;;;;;;;49.50;45.50;;;;;;;-0.54;100.00;101373.50;4967184;28;20129;-77
2023/12/11 02:03:19;;;;;;;55.17;51.08;;;;;;;-0.52;100.00;101376.81;4964785;28;20047;-77
2023/12/11 02:05:46;;;;;;;48.17;44.47;;;;;;;-0.50;100.00;101376.69;4968839;28;20065;-77
2023/12/11 02:08:15;;;;;;;45.88;42.28;;;;;;;-0.52;100.00;101381.19;5010442;28;20048;-77
2023/12/11 02:10:42;;;;;;;45.85;42.15;;;;;;;-0.48;100.00;101374.81;5011150;28;20053;-77
2023/12/11 02:13:08;;;;;;;45.10;41.30;;;;;;;-0.52;100.00;101381.19;5004900;28;20150;-77
2023/12/11 02:15:41;;;;;;;48.25;44.30;;;;;;;-0.52;100.00;101376.81;5010587;28;20125;-77
2023/12/11 02:18:10;;;;;;;46.95;43.35;;;;;;;-0.51;100.00;101377.66;5008479;28;20050;-77
2023/12/11 02:20:38;;;;;;;49.78;45.78;;;;;;;-0.45;100.00;101371.97;5014650;28;20059;-77
2023/12/11 02:23:09;;;;;;;52.45;48.33;;;;;;;-0.46;100.00;101375.50;5005774;28;20423;-77
2023/12/11 02:25:39;;;;;;;49.30;45.28;;;;;;;-0.42;100.00;101374.34;5007134;28;20054;-77
2023/12/11 02:38:22;;;;;;;52.42;47.60;;;;;;;-0.37;100.00;101363.53;4950093;28;20130;-77
2023/12/11 03:17:14;;;;;;;48.63;44.72;;;;;;;-0.27;100.00;101378.38;4748751;29;20066;-77
2023/12/11 03:19:41;;;;;;;45.17;41.47;;;;;;;-0.30;100.00;101376.00;4840871;29;20099;-77
2023/12/11 03:22:11;;;;;;;53.13;48.50;;;;;;;-0.26;100.00;101379.19;4894843;29;20047;-77
2023/12/11 03:24:38;;;;;;;48.28;44.28;;;;;;;-0.35;100.00;101365.06;4914191;29;20052;-77
2023/12/11 03:27:07;;;;;;;45.30;41.70;;;;;;;-0.27;100.00;101367.94;4916010;29;20528;-77
2023/12/11 03:29:35;;;;;;;51.13;47.05;;;;;;;-0.32;100.00;101361.41;4915489;29;20511;-77
2023/12/11 03:32:02;;;;;;;50.20;45.88;;;;;;;-0.37;100.00;101361.75;4922824;29;20489;-77
2023/12/11 03:34:36;;;;;;;62.72;57.47;;;;;;;-0.27;100.00;101360.09;4912106;29;20049;-77
2023/12/11 03:37:10;;;;;;;48.60;44.80;;;;;;;-0.24;100.00;101356.41;4921844;29;20065;-77
2023/12/11 03:39:38;;;;;;;50.28;46.20;;;;;;;-0.33;100.00;101349.31;4920554;29;20047;-77
2023/12/11 03:42:05;;;;;;;47.58;43.55;;;;;;;-0.33;100.00;101355.34;4937097;29;20055;-77
2023/12/11 03:44:32;;;;;;;50.83;46.50;;;;;;;-0.35;100.00;101349.41;4965705;28;20046;-77
2023/12/11 03:51:08;;;;;;;49.25;45.35;;;;;;;-0.31;100.00;101331.72;4953230;28;20055;-71
2023/12/11 03:53:46;;;;;;;;;;;;;;;-0.30;100.00;101333.41;5007619;28;20052;-72
2023/12/11 03:56:50;;;;;;;48.47;44.67;;;;;;;-0.34;100.00;101330.19;5006577;28;19968;-71
2023/12/11 03:59:17;;;;;;;53.47;49.28;;;;;;;-0.35;100.00;101345.97;5005300;28;20050;-77
2023/12/11 04:02:49;;;;;;;47.28;43.38;;;;;;;-0.26;100.00;101343.47;5004815;28;20050;-72
2023/12/11 04:05:16;;;;;;;49.15;45.25;;;;;;;-0.29;100.00;101346.31;5006951;28;20075;-76
2023/12/11 04:07:48;;;;;;;43.33;39.88;;;;;;;-0.22;100.00;101338.00;5012943;28;20118;-76
2023/12/11 04:10:15;;;;;;;40.53;37.42;;;;;;;-0.19;100.00;101341.19;5006129;28;20046;-77
2023/12/11 04:12:43;;;;;;;45.45;41.85;;;;;;;-0.21;100.00;101335.28;5003457;28;20439;-77
2023/12/11 04:15:11;;;;;;;44.58;41.28;;;;;;;-0.22;100.00;101333.59;5002609;28;20050;-77
2023/12/11 04:17:38;;;;;;;41.03;37.75;;;;;;;-0.18;100.00;101328.97;5005540;28;20042;-77
2023/12/11 04:20:05;;;;;;;37.92;34.92;;;;;;;-0.22;100.00;101323.16;5005292;28;20052;-77
2023/12/11 04:36:05;;;;;;;36.05;33.15;;;;;;;-0.15;100.00;101337.41;4963383;28;20051;-77
2023/12/11 04:38:52;;;;;;;37.20;34.15;;;;;;;-0.13;100.00;101319.81;4963855;28;20081;-71
2023/12/11 04:41:19;;;;;;;40.40;37.40;;;;;;;-0.16;100.00;101330.50;4961084;28;20497;-70
2023/12/11 04:43:54;;;;;;;39.78;36.67;;;;;;;-0.14;100.00;101327.78;4963130;28;20058;-75
2023/12/11 04:46:21;;;;;;;37.60;34.60;;;;;;;-0.12;100.00;101307.59;4964636;28;20447;-75
2023/12/11 04:48:50;;;;;;;40.53;37.45;;;;;;;-0.17;100.00;101312.38;4955276;28;20074;-74
2023/12/11 04:51:32;;;;;;;44.67;41.40;;;;;;;-0.12;100.00;101315.44;4959872;28;20459;-74
2023/12/11 04:54:05;;;;;;;40.88;38.28;;;;;;;-0.16;100.00;101312.22;4965410;28;20050;-75
2023/12/11 04:56:32;;;;;;;42.40;39.50;;;;;;;-0.18;100.00;101319.38;4965890;28;20061;-75
2023/12/11 04:58:59;;;;;;;39.80;36.70;;;;;;;-0.14;100.00;101326.00;4959269;28;20214;-74
2023/12/11 05:01:26;;;;;;;41.83;38.72;;;;;;;0.20;100.00;101331.97;4959740;28;20054;-77
2023/12/11 05:04:00;;;;;;;43.45;40.35;;;;;;;0.59;100.00;101331.47;4963691;28;20082;-77
2023/12/11 05:06:27;;;;;;;38.47;35.67;;;;;;;0.09;100.00;101329.41;4958650;28;20054;-77
2023/12/11 05:08:54;;;;;;;36.45;33.85;;;;;;;-0.01;100.00;101341.53;4966698;28;20882;-77
2023/12/11 05:11:22;;;;;;;36.35;33.85;;;;;;;0.05;100.00;101343.66;4959488;28;20134;-77
2023/12/11 05:13:48;;;;;;;41.17;38.38;;;;;;;0.07;100.00;101339.16;4963629;28;20043;-77
2023/12/11 05:16:16;;;;;;;41.35;38.55;;;;;;;0.04;100.00;101338.56;4963734;28;20049;-77
2023/12/11 05:18:43;;;;;;;43.03;39.97;;;;;;;0.02;100.00;101328.22;4963311;28;20090;-77
2023/12/11 05:21:19;;;;;;;40.60;37.90;;;;;;;0.03;100.00;101335.13;4961035;28;20433;-72
2023/12/11 05:23:46;;;;;;;40.50;37.75;;;;;;;-0.06;100.00;101330.59;5001744;28;20074;-72
2023/12/11 05:26:19;;;;;;;39.67;36.42;;;;;;;-0.05;100.00;101320.06;5010934;28;20049;-72
2023/12/11 05:28:49;;;;;;;34.95;32.13;;;;;;;-0.14;100.00;101310.34;5009027;28;20141;-72
2023/12/11 05:31:16;;;;;;;33.53;30.80;;;;;;;-0.27;100.00;101307.88;5002856;28;20124;-72
2023/12/11 05:33:43;;;;;;;33.38;30.88;;;;;;;-0.34;100.00;101306.69;4996757;28;20054;-77
2023/12/11 05:36:12;;;;;;;34.15;31.65;;;;;;;-0.42;100.00;101311.69;5009378;28;20141;-77
2023/12/11 05:38:39;;;;;;;34.53;31.92;;;;;;;-0.58;100.00;101306.81;5008411;28;20141;-78
2023/12/11 05:41:06;;;;;;;34.35;31.80;;;;;;;-0.59;100.00;101312.16;5011099;28;20050;-78
2023/12/11 05:43:33;;;;;;;33.90;31.13;;;;;;;-0.68;100.00;101311.09;5010615;28;20053;-78
2023/12/11 05:46:00;;;;;;;33.60;31.23;;;;;;;-0.68;100.00;101318.09;5008852;28;20154;-78
2023/12/11 05:48:34;;;;;;;34.03;31.23;;;;;;;-0.64;100.00;101329.94;5006838;28;20089;-78
2023/12/11 05:51:17;;;;;;;38.35;35.67;;;;;;;-0.65;100.00;101328.31;5008916;28;20129;-72
2023/12/11 05:53:45;;;;;;;43.67;40.10;;;;;;;-0.71;100.00;101320.00;4998268;28;20166;-72
2023/12/11 05:56:12;;;;;;;52.58;47.58;;;;;;;-0.69;100.00;101332.94;5010884;28;20165;-72
2023/12/11 05:58:40;;;;;;;58.35;52.42;;;;;;;-0.59;100.00;101335.66;5008339;28;20218;-72
2023/12/11 06:01:07;;;;;;;42.13;39.08;;;;;;;-0.58;100.00;101329.47;5003071;28;20050;-72
2023/12/11 06:03:41;;;;;;;42.40;39.08;;;;;;;-0.39;100.00;101327.13;5007333;28;20104;-77
2023/12/11 06:06:15;;;;;;;39.15;36.25;;;;;;;-0.24;100.00;101338.16;5004484;28;20145;-78
2023/12/11 06:09:02;;;;;;;38.10;35.20;;;;;;;-0.40;100.00;101351.53;5010186;28;20142;-77
2023/12/11 06:11:29;;;;;;;41.97;38.88;;;;;;;-0.41;100.00;101367.34;5001505;28;20052;-78
2023/12/11 06:13:56;;;;;;;46.63;43.28;;;;;;;0.31;100.00;101369.50;5003341;28;20157;-78
2023/12/11 06:16:33;;;;;;;48.35;44.75;;;;;;;0.64;100.00;101369.38;5010681;28;20526;-72
2023/12/11 06:19:09;;;;;;;47.97;44.03;;;;;;;1.02;100.00;101369.78;5008090;28;20125;-72
2023/12/11 06:21:36;;;;;;;46.80;43.38;;;;;;;1.20;100.00;101373.47;5006987;28;20046;-77
2023/12/11 06:24:05;;;;;;;47.33;43.63;;;;;;;0.98;100.00;101368.38;5003608;28;20317;-77
2023/12/11 06:26:34;;;;;;;40.30;37.30;;;;;;;1.05;100.00;101377.38;5008299;28;20053;-77
2023/12/11 06:29:02;;;;;;;38.97;36.03;;;;;;;0.94;100.00;101386.13;5007840;28;20056;-77
2023/12/11 06:31:32;;;;;;;38.25;35.53;;;;;;;0.84;100.00;101390.44;5008545;28;20152;-72
2023/12/11 06:34:10;;;;;;;35.60;32.67;;;;;;;0.69;100.00;101379.44;5008131;28;20088;-73
2023/12/11 06:36:37;;;;;;;34.50;31.90;;;;;;;0.51;100.00;101365.25;5007044;28;20046;-77
2023/12/11 06:39:08;;;;;;;36.45;33.55;;;;;;;0.47;100.00;101366.47;5003271;28;20052;-72
2023/12/11 06:41:47;;;;;;;41.78;38.50;;;;;;;0.46;100.00;101365.66;5007525;28;20487;-72
2023/12/11 06:44:22;;;;;;;46.00;42.33;;;;;;;0.45;100.00;101370.06;5007487;28;20052;-72
2023/12/11 06:46:49;;;;;;;46.70;43.00;;;;;;;0.43;100.00;101369.34;5004159;28;20053;-76
2023/12/11 06:49:16;;;;;;;47.22;43.50;;;;;;;0.47;100.00;101372.53;5009648;28;20077;-72
2023/12/11 06:51:43;;;;;;;42.90;39.70;;;;;;;0.50;100.00;101374.06;5008850;28;20078;-77
2023/12/11 06:54:11;;;;;;;46.85;43.17;;;;;;;0.54;100.00;101371.06;5003424;28;20077;-72
2023/12/11 06:56:38;;;;;;;43.75;40.55;;;;;;;0.64;100.00;101371.16;4999779;28;20503;-77
2023/12/11 06:59:16;;;;;;;49.03;45.22;;;;;;;0.64;100.00;101352.88;5004658;28;20081;-72
2023/12/11 07:01:43;;;;;;;46.65;42.75;;;;;;;0.70;100.00;101354.97;5002155;28;20140;-77
2023/12/11 07:04:10;;;;;;;42.47;39.17;;;;;;;0.74;100.00;101360.78;5007415;28;20049;-77
2023/12/11 07:06:48;;;;;;;54.55;49.65;;;;;;;0.78;100.00;101359.56;5002092;28;20046;-72
2023/12/11 07:09:17;;;;;;;66.28;55.38;;;;;;;0.77;100.00;101350.06;5007079;28;20057;-72
2023/12/11 07:11:54;;;;;;;47.38;43.28;;;;;;;0.80;100.00;101349.81;5004536;28;20452;-72
2023/12/11 07:14:23;;;;;;;44.33;40.92;;;;;;;0.79;100.00;101353.41;5007994;28;20160;-72
2023/12/11 07:16:57;;;;;;;51.88;47.75;;;;;;;0.93;100.00;101354.84;5004401;28;20046;-77
2023/12/11 07:19:32;;;;;;;48.22;44.67;;;;;;;1.03;100.00;101371.44;5008894;28;20048;-77
2023/12/11 07:22:00;;;;;;;44.13;40.65;;;;;;;1.02;100.00;101369.78;5001536;28;20050;-72
2023/12/11 07:24:28;;;;;;;43.25;39.95;;;;;;;0.99;100.00;101365.63;5001288;28;20072;-78
2023/12/11 07:27:01;;;;;;;46.83;43.20;;;;;;;0.98;100.00;101358.75;5004862;28;20120;-77
2023/12/11 07:29:46;;;;;;;46.85;42.60;;;;;;;1.00;100.00;101359.47;5008374;28;20570;-72
2023/12/11 07:32:13;;;;;;;41.35;38.05;;;;;;;1.03;100.00;101360.97;5007719;28;20559;-77
2023/12/11 07:34:42;;;;;;;39.25;36.20;;;;;;;1.23;100.00;101349.66;5003495;28;20053;-77
2023/12/11 07:37:16;;;;;;;41.63;38.35;;;;;;;1.52;100.00;101359.47;5005327;28;20500;-72
2023/12/11 07:39:44;;;;;;;37.70;34.80;;;;;;;1.43;100.00;101357.63;5006942;28;20049;-77
2023/12/11 07:42:15;;;;;;;38.15;35.25;;;;;;;1.48;100.00;101364.09;5000439;28;20649;-77
2023/12/11 07:44:48;;;;;;;39.47;36.58;;;;;;;1.65;100.00;101359.22;5005238;28;20579;-77
2023/12/11 07:47:14;;;;;;;39.88;36.22;;;;;;;1.63;100.00;101361.13;4996201;28;20508;-77
2023/12/11 07:50:05;;;;;;;36.88;33.97;;;;;;;1.66;100.00;101363.50;5005615;28;20132;-72
2023/12/11 07:52:32;;;;;;;35.90;32.35;;;;;;;1.70;100.00;101360.50;5003795;28;20511;-72
2023/12/11 07:55:01;;;;;;;35.97;33.28;;;;;;;1.65;100.00;101361.84;5007167;28;20140;-72
2023/12/11 07:57:29;;;;;;;37.45;34.65;;;;;;;1.79;100.00;101359.69;5001596;28;20069;-72
2023/12/11 08:00:04;;;;;;;42.60;39.65;;;;;;;1.83;100.00;101355.84;5006667;28;20050;-77
2023/12/11 08:02:31;;;;;;;41.70;38.60;;;;;;;1.90;100.00;101352.69;5007517;28;20041;-77
2023/12/11 08:05:00;;;;;;;41.38;38.47;;;;;;;1.97;100.00;101359.06;5002511;28;20060;-72
2023/12/11 08:10:27;;;;;;;46.53;43.00;;;;;;;2.03;100.00;101342.81;5004776;28;20054;-76
2023/12/11 08:13:14;;;;;;;40.75;37.50;;;;;;;2.15;100.00;101353.97;4999654;28;20515;-72
2023/12/11 08:15:41;;;;;;;40.08;37.17;;;;;;;2.02;100.00;101354.22;5006592;28;20054;-77
2023/12/11 08:18:09;;;;;;;41.42;38.17;;;;;;;2.03;100.00;101348.03;5005449;28;20104;-77
2023/12/11 08:20:36;;;;;;;40.42;37.53;;;;;;;2.15;100.00;101354.81;5004182;28;20069;-77
2023/12/11 08:23:03;;;;;;;39.80;36.80;;;;;;;2.11;100.00;101347.34;5007521;28;20515;-78
2023/12/11 08:25:43;;;;;;;42.03;38.55;;;;;;;2.32;100.00;101344.63;5000611;28;20129;-77
2023/12/11 08:28:23;;;;;;;41.72;38.38;;;;;;;2.33;100.00;101346.28;5002125;28;20053;-72
2023/12/11 08:30:56;;;;;;;50.03;46.08;;;;;;;2.42;100.00;101342.84;5003727;28;20555;-72
2023/12/11 08:33:23;;;;;;;40.10;37.00;;;;;;;2.27;100.00;101335.38;5013644;28;20080;-72
2023/12/11 08:35:50;;;;;;;41.35;38.28;;;;;;;2.44;100.00;101343.53;5046749;28;20045;-78
2023/12/11 08:38:18;;;;;;;40.78;37.67;;;;;;;2.51;100.00;101337.63;5038343;28;20069;-77
2023/12/11 08:41:37;;;;;;;41.30;38.10;;;;;;;2.58;100.00;101340.50;5047079;28;20790;-72
2023/12/11 08:44:08;;;;;;;37.40;34.53;;;;;;;2.57;100.00;101330.97;5044959;28;20137;-72
2023/12/11 08:46:37;;;;;;;42.20;38.78;;;;;;;2.61;100.00;101328.91;5043314;28;20083;-72
2023/12/11 08:49:04;;;;;;;37.92;35.13;;;;;;;2.58;100.00;101316.06;5042757;28;20053;-72
2023/12/11 08:51:31;;;;;;;39.22;36.13;;;;;;;2.63;100.00;101327.81;5037396;28;20053;-72
2023/12/11 08:53:58;;;;;;;40.42;37.03;;;;;;;2.68;100.00;101335.25;5047473;28;20119;-72
2023/12/11 08:56:28;;;;;;;42.83;39.72;;;;;;;2.63;100.00;101326.97;5050586;28;20526;-72
2023/12/11 08:58:57;;;;;;;38.17;35.38;;;;;;;2.67;100.00;101321.31;5046517;28;20048;-72
2023/12/11 09:01:28;;;;;;;38.40;35.55;;;;;;;2.75;100.00;101323.22;5050549;28;20103;-72
2023/12/11 09:03:55;;;;;;;37.63;34.83;;;;;;;2.64;100.00;101323.38;5041094;28;20445;-72
2023/12/11 09:06:22;;;;;;;41.70;38.60;;;;;;;2.75;100.00;101321.44;5049268;28;20438;-72
2023/12/11 09:08:50;;;;;;;41.53;38.22;;;;;;;2.76;100.00;101317.03;5044693;28;20510;-74
2023/12/11 09:11:20;;;;;;;37.92;34.92;;;;;;;2.74;100.00;101318.94;5048864;28;20083;-77
2023/12/11 09:18:09;;;;;;;40.10;37.20;;;;;;;2.91;100.00;101325.28;5040230;28;20490;-72
2023/12/11 09:20:38;;;;;;;38.63;35.65;;;;;;;2.88;100.00;101322.94;5046736;28;20053;-72
2023/12/11 09:23:05;;;;;;;38.53;35.72;;;;;;;2.84;100.00;101321.56;5048217;28;20141;-72
2023/12/11 09:25:32;;;;;;;40.58;37.58;;;;;;;2.93;100.00;101313.66;5044190;28;20072;-72
2023/12/11 09:27:59;;;;;;;41.67;38.58;;;;;;;2.85;100.00;101304.88;5048208;28;20131;-77
2023/12/11 09:33:49;;;;;;;39.72;36.03;;;;;;;2.90;100.00;101311.31;5042073;28;20045;-76
2023/12/11 09:36:29;;;;;;;41.67;38.58;;;;;;;3.01;100.00;101299.84;5047646;28;20055;-71
2023/12/11 09:38:58;;;;;;;42.28;39.15;;;;;;;3.09;100.00;101294.72;5049705;28;20044;-72
2023/12/11 09:41:29;;;;;;;44.85;41.50;;;;;;;3.14;100.00;101295.09;5045853;28;20050;-77
2023/12/11 09:43:57;;;;;;;46.25;42.88;;;;;;;3.15;100.00;101298.56;5048422;28;20041;-75
2023/12/11 09:46:25;;;;;;;43.05;40.00;;;;;;;3.19;100.00;101298.13;5049261;28;20049;-77
2023/12/11 09:48:53;;;;;;;44.83;41.72;;;;;;;3.24;100.00;101287.22;5049204;28;20506;-77
2023/12/11 09:51:22;;;;;;;41.80;38.97;;;;;;;3.22;100.00;101286.53;5047189;28;20132;-77
2023/12/11 09:54:16;;;;;;;46.25;43.05;;;;;;;3.24;100.00;101284.59;5047288;28;20052;-72
2023/12/11 09:57:06;;;;;;;42.95;39.95;;;;;;;3.21;100.00;101288.31;5017042;28;20572;-72
2023/12/11 09:59:42;;;;;;;43.80;40.70;;;;;;;3.29;100.00;101284.13;5045696;28;20053;-77
2023/12/11 10:02:15;;;;;;;48.20;44.78;;;;;;;3.23;100.00;101282.91;5041997;28;20047;-77
2023/12/11 10:05:03;;;;;;;49.42;45.72;;;;;;;3.25;100.00;101274.91;5045973;28;20057;-77
2023/12/11 10:07:32;;;;;;;48.67;44.97;;;;;;;3.28;100.00;101285.94;5048037;28;20045;-77
2023/12/11 10:09:59;;;;;;;50.00;46.30;;;;;;;3.31;100.00;101283.03;5050733;28;20845;-77
2023/12/11 10:12:27;;;;;;;50.67;46.78;;;;;;;3.30;100.00;101278.75;5048635;28;20055;-77
2023/12/11 10:15:01;;;;;;;49.20;45.60;;;;;;;3.32;100.00;101271.53;5048871;28;20063;-77
2023/12/11 10:17:29;;;;;;;52.13;48.22;;;;;;;3.41;100.00;101262.78;5047903;28;20132;-77
2023/12/11 10:23:14;;;;;;;53.05;49.25;;;;;;;3.58;100.00;101255.13;5046678;28;20094;-72
2023/12/11 10:25:45;;;;;;;48.17;44.58;;;;;;;3.52;100.00;101250.44;5042516;28;20442;-77
2023/12/11 10:31:35;;;;;;;48.15;44.55;;;;;;;3.65;100.00;101257.00;5047049;28;20605;-77
2023/12/11 10:36:53;;;;;;;46.63;43.10;;;;;;;3.47;100.00;101248.25;5043950;28;20057;-77
2023/12/11 10:39:58;;;;;;;47.88;44.38;;;;;;;3.67;100.00;101244.53;5048982;28;20137;-72
2023/12/11 10:42:27;;;;;;;45.67;42.38;;;;;;;3.62;100.00;101238.91;5043702;28;20128;-71
2023/12/11 10:44:56;;;;;;;46.35;42.70;;;;;;;3.76;100.00;101234.13;5048471;28;20048;-72
2023/12/11 10:47:23;;;;;;;38.60;35.90;;;;;;;3.78;100.00;101235.63;5046657;28;20063;-72
2023/12/11 10:49:51;;;;;;;37.75;34.95;;;;;;;3.62;100.00;101233.66;5039923;28;20490;-72
2023/12/11 10:52:18;;;;;;;37.42;34.63;;;;;;;3.84;100.00;101231.56;5042478;28;20052;-76
2023/12/11 10:54:45;;;;;;;36.88;34.13;;;;;;;3.86;100.00;101234.88;5044227;28;20045;-77
2023/12/11 10:57:14;;;;;;;40.78;37.67;;;;;;;3.89;100.00;101234.56;5045393;28;20263;-77
2023/12/11 10:59:42;;;;;;;42.35;38.45;;;;;;;4.04;100.00;101251.47;5047261;28;20143;-77
2023/12/11 11:02:10;;;;;;;38.92;35.80;;;;;;;4.11;100.00;101222.78;5046357;28;20254;-77
2023/12/11 11:04:40;;;;;;;35.35;32.65;;;;;;;4.14;100.00;101227.75;5047703;28;20041;-77
2023/12/11 11:10:41;;;;;;;38.67;35.72;;;;;;;4.19;100.00;101214.16;5043809;28;20044;-77
2023/12/11 11:13:29;;;;;;;38.10;35.05;;;;;;;4.19;100.00;101212.34;5041589;28;20128;-77
2023/12/11 11:16:00;;;;;;;38.65;35.70;;;;;;;4.26;100.00;101207.28;5047462;28;20056;-72
2023/12/11 11:18:27;;;;;;;37.90;35.00;;;;;;;4.30;100.00;101216.56;5047408;28;20425;-77
2023/12/11 11:21:17;;;;;;;34.78;31.98;;;;;;;4.17;100.00;101219.53;5042576;28;20056;-77
2023/12/11 11:23:45;;;;;;;36.42;33.67;;;;;;;4.07;100.00;101205.66;5044432;28;20055;-72
2023/12/11 11:26:31;;;;;;;37.28;34.40;;;;;;;4.37;100.00;101207.06;5041106;28;20120;-71
2023/12/11 11:28:58;;;;;;;38.45;35.45;;;;;;;4.28;100.00;101197.47;5045463;28;20106;-77
2023/12/11 11:31:51;;;;;;;35.25;32.45;;;;;;;4.22;100.00;101193.63;5046042;28;20056;-72
2023/12/11 11:34:44;;;;;;;36.70;33.70;;;;;;;4.33;100.00;101190.75;5032117;28;20124;-77
2023/12/11 11:38:04;;;;;;;39.20;36.20;;;;;;;4.31;100.00;101187.47;5037735;28;20099;-72
2023/12/11 11:40:39;;;;;;;37.90;35.00;;;;;;;4.21;100.00;101188.53;5040177;28;20046;-72
2023/12/11 11:46:14;;;;;;;36.25;33.35;;;;;;;3.99;100.00;101172.25;5040885;28;20048;-71
2023/12/11 11:48:42;;;;;;;40.28;37.17;;;;;;;3.98;100.00;101167.97;5044257;28;20057;-72
2023/12/11 11:51:10;;;;;;;40.33;37.03;;;;;;;3.95;100.00;101173.53;5038466;28;20053;-72
2023/12/11 11:53:37;;;;;;;41.20;37.95;;;;;;;3.87;100.00;101155.91;5047658;28;20048;-71
2023/12/11 11:56:07;;;;;;;44.60;41.08;;;;;;;3.84;100.00;101166.72;5040678;28;20516;-72
2023/12/11 11:58:34;;;;;;;47.38;43.67;;;;;;;3.96;100.00;101166.47;5044620;28;20148;-77
2023/12/11 12:04:39;;;;;;;46.38;42.78;;;;;;;4.01;100.00;101151.06;5043383;28;20102;-72
2023/12/11 12:07:07;;;;;;;49.95;46.15;;;;;;;4.10;100.00;101158.88;5040022;28;20103;-77
2023/12/11 12:10:04;;;;;;;44.35;40.85;;;;;;;4.00;100.00;101144.19;5042467;28;20438;-72
2023/12/11 12:12:32;;;;;;;41.28;38.08;;;;;;;3.97;100.00;101141.84;5044106;28;20047;-77
2023/12/11 12:15:43;;;;;;;45.90;42.28;;;;;;;4.20;100.00;101131.66;5040396;28;20064;-72
2023/12/11 12:18:10;;;;;;;48.60;44.50;;;;;;;4.19;100.00;101127.38;5043582;28;20057;-77
2023/12/11 12:20:38;;;;;;;48.60;44.78;;;;;;;4.19;100.00;101122.94;5045875;28;20053;-77
2023/12/11 12:26:07;;;;;;;45.20;41.10;;;;;;;4.28;100.00;101129.09;5039499;28;20052;-72
2023/12/11 12:28:34;;;;;;;;;;;;;;;4.26;100.00;101121.34;5048195;28;20049;-72
2023/12/11 12:31:01;;;;;;;39.50;36.42;;;;;;;4.15;100.00;101121.63;5050212;28;19968;-72
2023/12/11 12:33:29;;;;;;;42.08;38.83;;;;;;;4.20;100.00;101098.28;5047171;28;20044;-72
2023/12/11 12:36:00;;;;;;;41.30;37.97;;;;;;;4.42;100.00;101104.84;5050634;28;20049;-77
2023/12/11 12:38:28;;;;;;;43.25;39.75;;;;;;;4.44;100.00;101107.31;5048621;28;20072;-77
2023/12/11 12:40:57;;;;;;;43.15;39.85;;;;;;;4.47;100.00;101099.09;5051854;28;20041;-77
2023/12/11 12:43:25;;;;;;;43.10;39.60;;;;;;;4.37;100.00;101104.50;5043955;28;20072;-77
2023/12/11 12:45:59;;;;;;;41.22;37.85;;;;;;;4.47;100.00;101091.22;5047012;28;20049;-77
2023/12/11 12:48:33;;;;;;;41.88;38.63;;;;;;;4.49;100.00;101084.00;5048458;28;20055;-77
2023/12/11 12:55:10;;;;;;;44.17;40.58;;;;;;;4.77;100.00;101101.22;5049884;28;20049;-71
2023/12/11 12:57:37;;;;;;;43.50;40.10;;;;;;;4.83;100.00;101094.50;5049544;28;20126;-72
2023/12/11 13:00:05;;;;;;;44.75;41.13;;;;;;;5.19;100.00;101095.09;5049335;28;20147;-72
2023/12/11 13:02:32;;;;;;;41.28;37.97;;;;;;;5.50;100.00;101097.13;5047091;28;20080;-72
2023/12/11 13:04:59;;;;;;;38.05;34.95;;;;;;;4.99;100.00;101091.94;5046109;28;20053;-72
2023/12/11 13:07:28;;;;;;;38.05;35.08;;;;;;;5.08;100.00;101100.66;5050174;28;20106;-72
2023/12/11 13:09:56;;;;;;;38.90;35.90;;;;;;;4.76;100.00;101096.94;5048212;28;20049;-72
2023/12/11 13:12:23;;;;;;;39.40;36.30;;;;;;;4.87;100.00;101097.63;5045267;28;20053;-72
2023/12/11 13:14:55;;;;;;;41.17;37.97;;;;;;;4.76;100.00;101096.94;5048113;28;20057;-72
2023/12/11 13:17:23;;;;;;;47.10;43.17;;;;;;;4.93;100.00;101097.00;5032756;28;20133;-72
2023/12/11 13:19:50;;;;;;;45.65;42.15;;;;;;;4.95;100.00;101095.84;5049358;28;20061;-77
2023/12/11 13:22:17;;;;;;;40.65;37.35;;;;;;;5.11;100.00;101095.06;5050847;28;20561;-77
2023/12/11 13:25:17;;;;;;;37.28;34.38;;;;;;;4.96;100.00;101083.50;5049219;28;20068;-72
2023/12/11 13:27:46;;;;;;;37.17;34.28;;;;;;;5.15;100.00;101077.16;5048673;28;20053;-78
2023/12/11 13:30:36;;;;;;;40.72;37.63;;;;;;;5.14;100.00;101078.13;5049271;28;20142;-72
2023/12/11 13:33:04;;;;;;;39.83;36.95;;;;;;;5.39;100.00;101076.38;5042936;28;20045;-72
2023/12/11 13:35:32;;;;;;;36.25;33.45;;;;;;;4.90;100.00;101074.47;5048992;28;20415;-72
2023/12/11 13:37:59;;;;;;;40.63;37.63;;;;;;;5.07;100.00;101083.22;5048776;28;20091;-77
2023/12/11 13:40:29;;;;;;;40.70;37.83;;;;;;;4.94;100.00;101082.88;5048960;28;20064;-77
2023/12/11 13:42:58;;;;;;;39.03;36.03;;;;;;;4.70;100.00;101079.16;5045992;28;20045;-77
2023/12/11 13:45:49;;;;;;;38.25;35.08;;;;;;;4.73;100.00;101067.50;5042660;28;20102;-72
2023/12/11 13:48:23;;;;;;;35.53;32.75;;;;;;;4.54;100.00;101068.59;5043588;28;20140;-77
2023/12/11 13:50:50;;;;;;;37.13;34.03;;;;;;;5.05;100.00;101067.59;5043581;28;20044;-77
2023/12/11 13:53:18;;;;;;;36.67;33.78;;;;;;;4.36;100.00;101063.41;5050429;28;20051;-77